Time;durP1;ratioP1;P1;durP2;ratioP2;P2;SDS_P1;SDS_P2;PMS_P1;PMS_P2;Temp;Humidity;BMP_temperature;BMP_pressure;BME280_temperature;BME280_humidity;BME280_pressure;Samples;Min_cycle;Max_cycle;Signal;HPM_P1;HPM_P2
2022/08/03 00:00:27;;;;;;;2.67;1.00;;;17.40;99.90;;;;;;5002044;28;20377;-69
2022/08/03 00:02:53;;;;;;;4.47;2.03;;;17.40;99.90;;;;;;5004190;28;20104;-66
2022/08/03 00:05:21;;;;;;;4.75;1.70;;;17.40;99.90;;;;;;5002946;28;20037;-66
2022/08/03 00:07:47;;;;;;;4.88;2.13;;;17.40;99.90;;;;;;5003359;28;20085;-66
2022/08/03 00:10:15;;;;;;;4.30;1.55;;;17.40;99.90;;;;;;5000268;28;20051;-67
2022/08/03 00:12:42;;;;;;;5.57;1.63;;;17.40;99.90;;;;;;5002589;28;20080;-66
2022/08/03 00:15:10;;;;;;;4.55;1.88;;;17.40;99.90;;;;;;5003224;28;20456;-70
2022/08/03 00:17:43;;;;;;;3.70;1.30;;;17.30;99.90;;;;;;4983429;28;20056;-69
2022/08/03 00:20:20;;;;;;;3.10;2.08;;;17.30;99.90;;;;;;4978436;28;20048;-66
2022/08/03 00:22:48;;;;;;;2.03;1.38;;;17.30;99.90;;;;;;4980139;28;20050;-66
2022/08/03 00:25:15;;;;;;;2.22;1.67;;;17.30;99.90;;;;;;4980701;28;20701;-69
2022/08/03 00:27:42;;;;;;;2.38;1.38;;;17.30;99.90;;;;;;4980947;28;20555;-67
2022/08/03 00:30:09;;;;;;;7.55;1.50;;;17.30;99.90;;;;;;4977505;28;20596;-68
2022/08/03 00:32:36;;;;;;;6.28;2.97;;;17.30;99.90;;;;;;4983503;28;20488;-68
2022/08/03 00:35:10;;;;;;;3.55;1.50;;;17.20;99.90;;;;;;4984365;28;20046;-72
2022/08/03 00:37:57;;;;;;;4.53;1.75;;;17.10;99.90;;;;;;4981170;28;20030;-66
2022/08/03 00:40:24;;;;;;;6.30;1.90;;;17.20;99.90;;;;;;4972203;28;20599;-70
2022/08/03 00:42:56;;;;;;;4.95;2.53;;;17.10;99.90;;;;;;4981441;28;20772;-66
2022/08/03 00:45:29;;;;;;;3.05;1.73;;;17.10;99.90;;;;;;4976679;28;20045;-66
2022/08/03 00:47:56;;;;;;;7.05;2.22;;;17.10;99.90;;;;;;4979136;28;20070;-67
2022/08/03 00:50:25;;;;;;;3.88;1.30;;;17.10;99.90;;;;;;4987661;28;20078;-66
2022/08/03 00:52:54;;;;;;;3.60;2.10;;;17.10;99.90;;;;;;4984441;28;20070;-66
2022/08/03 00:55:22;;;;;;;3.40;1.65;;;17.10;99.90;;;;;;4981838;28;20129;-66
2022/08/03 00:57:49;;;;;;;4.68;1.85;;;17.10;99.90;;;;;;4980710;28;20129;-66
2022/08/03 01:00:20;;;;;;;5.60;1.98;;;17.10;99.90;;;;;;4984826;28;20096;-66
2022/08/03 01:02:49;;;;;;;4.63;1.80;;;17.10;99.90;;;;;;4982380;28;20034;-70
2022/08/03 01:05:16;;;;;;;3.13;2.05;;;17.10;99.90;;;;;;4975442;28;20701;-67
2022/08/03 01:07:49;;;;;;;1.35;0.90;;;17.10;99.90;;;;;;4979192;28;20093;-68
2022/08/03 01:10:28;;;;;;;5.95;1.92;;;17.10;99.90;;;;;;4983262;28;20499;-67
2022/08/03 01:13:03;;;;;;;5.43;2.20;;;17.20;99.90;;;;;;4982584;28;20173;-66
2022/08/03 01:15:42;;;;;;;3.00;1.70;;;17.20;99.90;;;;;;4976061;28;20136;-68
2022/08/03 01:18:17;;;;;;;3.53;1.50;;;17.20;99.90;;;;;;4981778;28;20524;-67
2022/08/03 01:20:48;;;;;;;4.28;2.00;;;17.10;99.90;;;;;;4977835;28;20133;-66
2022/08/03 01:23:55;;;;;;;7.32;1.52;;;17.10;99.90;;;;;;4978711;28;20137;-68
2022/08/03 01:26:40;;;;;;;3.90;1.80;;;17.20;99.90;;;;;;4978856;28;20101;-70
2022/08/03 01:29:39;;;;;;;2.83;1.75;;;17.20;99.90;;;;;;4980304;28;20768;-72
2022/08/03 01:32:12;;;;;;;5.10;1.60;;;17.10;99.90;;;;;;4977751;28;20077;-67
2022/08/03 01:35:12;;;;;;;2.63;1.17;;;17.10;99.90;;;;;;4980620;28;20492;-68
2022/08/03 01:37:50;;;;;;;3.10;1.25;;;17.10;99.90;;;;;;4978548;28;20133;-67
2022/08/03 01:40:19;;;;;;;5.00;2.20;;;17.10;99.90;;;;;;5001144;28;20096;-71
2022/08/03 01:42:47;;;;;;;5.10;1.98;;;17.10;99.90;;;;;;4981270;28;20046;-73
2022/08/03 01:45:17;;;;;;;9.90;2.20;;;17.10;99.90;;;;;;4972329;28;20077;-68
2022/08/03 01:47:46;;;;;;;3.15;1.42;;;17.10;99.90;;;;;;4981963;28;20050;-72
2022/08/03 01:50:14;;;;;;;7.85;1.70;;;17.10;99.90;;;;;;4985699;28;20149;-68
2022/08/03 01:52:46;;;;;;;4.65;3.03;;;17.10;99.90;;;;;;4982600;28;20073;-68
2022/08/03 01:55:17;;;;;;;3.85;1.85;;;17.10;99.90;;;;;;4968107;28;20050;-67
2022/08/03 01:57:47;;;;;;;4.70;1.80;;;17.00;99.90;;;;;;4970661;28;20047;-68
2022/08/03 02:00:36;;;;;;;9.52;1.80;;;17.00;99.90;;;;;;4973715;28;20153;-67
2022/08/03 02:03:08;;;;;;;8.05;2.22;;;17.00;99.90;;;;;;4977141;28;20039;-66
2022/08/03 02:05:36;;;;;;;5.65;2.20;;;17.00;99.90;;;;;;4995898;28;20049;-69
2022/08/03 02:08:06;;;;;;;4.45;2.05;;;17.00;99.90;;;;;;5001147;28;20137;-67
2022/08/03 02:10:34;;;;;;;4.90;2.05;;;17.00;99.90;;;;;;4985880;28;20039;-66
2022/08/03 02:13:04;;;;;;;6.60;2.38;;;17.00;99.90;;;;;;4981924;28;20562;-66
2022/08/03 02:15:34;;;;;;;6.63;2.25;;;17.00;99.90;;;;;;4976566;28;20092;-65
2022/08/03 02:18:04;;;;;;;2.42;1.67;;;17.00;99.90;;;;;;4991548;28;20051;-67
2022/08/03 02:20:32;;;;;;;4.93;1.77;;;17.00;99.90;;;;;;4976572;28;20074;-67
2022/08/03 02:22:59;;;;;;;8.15;2.30;;;17.00;99.90;;;;;;4979027;28;20134;-67
2022/08/03 02:25:27;;;;;;;7.50;2.78;;;17.00;99.90;;;;;;4976439;28;20140;-66
2022/08/03 02:28:00;;;;;;;2.05;1.70;;;17.00;99.90;;;;;;4984616;28;20049;-66
2022/08/03 02:30:35;;;;;;;4.05;1.67;;;17.00;99.90;;;;;;4986215;28;20053;-66
2022/08/03 02:33:03;;;;;;;5.90;1.67;;;17.00;99.90;;;;;;4981411;28;20061;-68
2022/08/03 02:35:32;;;;;;;8.85;1.88;;;17.00;99.90;;;;;;4973524;28;20081;-69
2022/08/03 02:38:02;;;;;;;8.32;2.30;;;17.00;99.90;;;;;;4969988;28;20105;-70
2022/08/03 02:40:31;;;;;;;6.13;1.75;;;17.00;99.90;;;;;;4971068;28;20093;-68
2022/08/03 02:43:06;;;;;;;4.88;1.70;;;17.10;99.90;;;;;;4972641;28;20142;-65
2022/08/03 02:45:36;;;;;;;5.07;1.65;;;17.10;99.90;;;;;;4996733;28;20206;-69
2022/08/03 02:48:11;;;;;;;5.35;2.10;;;17.10;99.90;;;;;;4999891;28;20050;-74
2022/08/03 02:50:39;;;;;;;5.97;3.83;;;17.10;99.90;;;;;;4998847;28;20125;-67
2022/08/03 02:53:08;;;;;;;5.70;2.05;;;17.10;99.90;;;;;;4999993;28;20141;-71
2022/08/03 02:55:36;;;;;;;7.88;3.00;;;17.10;99.90;;;;;;4995528;28;20085;-68
2022/08/03 02:58:13;;;;;;;5.43;1.95;;;17.10;99.90;;;;;;5001236;28;20065;-68
2022/08/03 03:00:42;;;;;;;5.63;2.10;;;17.00;99.90;;;;;;4999737;28;20140;-67
2022/08/03 03:03:10;;;;;;;7.70;3.40;;;17.10;99.90;;;;;;4998639;28;20081;-67
2022/08/03 03:05:40;;;;;;;4.10;2.42;;;17.10;99.90;;;;;;4990788;28;20100;-66
2022/08/03 03:08:22;;;;;;;4.90;1.52;;;17.10;99.90;;;;;;5001672;28;20068;-69
2022/08/03 03:11:00;;;;;;;4.68;1.80;;;17.10;99.90;;;;;;4992942;28;20453;-69
2022/08/03 03:13:31;;;;;;;6.28;3.53;;;17.10;99.90;;;;;;4996716;28;20141;-68
2022/08/03 03:16:01;;;;;;;5.20;3.50;;;17.10;99.90;;;;;;4999736;28;20192;-71
2022/08/03 03:18:29;;;;;;;5.38;3.05;;;17.10;99.90;;;;;;4998689;28;20049;-69
2022/08/03 03:20:58;;;;;;;7.35;2.97;;;17.10;99.90;;;;;;4998825;28;20045;-66
2022/08/03 03:23:26;;;;;;;2.85;1.83;;;17.10;99.90;;;;;;4997928;28;20069;-70
2022/08/03 03:25:55;;;;;;;5.20;2.75;;;17.10;99.90;;;;;;5001201;28;20065;-69
2022/08/03 03:28:23;;;;;;;5.10;2.50;;;17.10;99.90;;;;;;5000019;28;20084;-67
2022/08/03 03:30:51;;;;;;;6.35;2.53;;;17.10;99.90;;;;;;4999697;28;20108;-70
2022/08/03 03:33:20;;;;;;;9.20;3.72;;;17.20;99.90;;;;;;4999993;28;20413;-66
2022/08/03 03:35:48;;;;;;;4.43;1.73;;;17.20;99.90;;;;;;4996862;28;20077;-72
2022/08/03 03:38:15;;;;;;;4.15;2.20;;;17.20;99.90;;;;;;5000942;28;20042;-69
2022/08/03 03:40:42;;;;;;;4.40;2.28;;;17.30;99.90;;;;;;5005601;28;20487;-65
2022/08/03 03:43:10;;;;;;;4.43;2.05;;;17.30;99.90;;;;;;5001920;28;20069;-69
2022/08/03 03:45:40;;;;;;;7.85;3.63;;;17.30;99.90;;;;;;4999361;28;20050;-65
2022/08/03 03:48:07;;;;;;;6.13;2.75;;;17.40;99.90;;;;;;5000088;28;20057;-69
2022/08/03 03:50:36;;;;;;;5.18;2.40;;;17.40;99.90;;;;;;4997887;28;20113;-66
2022/08/03 03:53:03;;;;;;;5.20;2.22;;;17.50;99.90;;;;;;5000027;28;20113;-66
2022/08/03 03:55:38;;;;;;;5.10;2.05;;;17.60;99.90;;;;;;4999756;28;20070;-67
2022/08/03 03:58:25;;;;;;;6.88;2.83;;;17.60;99.90;;;;;;5003879;28;20054;-69
2022/08/03 04:00:52;;;;;;;4.18;2.35;;;17.70;99.90;;;;;;5001930;28;20107;-69
2022/08/03 04:03:20;;;;;;;7.20;1.88;;;17.70;99.90;;;;;;4998551;28;20050;-73
2022/08/03 04:11:47;;;;;;;4.50;1.77;;;17.90;99.90;;;;;;5001091;28;20442;-66
2022/08/03 04:14:23;;;;;;;7.50;2.97;;;17.90;99.90;;;;;;4992389;28;20061;-69
2022/08/03 04:16:57;;;;;;;5.55;2.72;;;18.00;99.90;;;;;;5000945;28;20042;-67
2022/08/03 04:19:35;;;;;;;3.53;1.60;;;18.00;99.90;;;;;;5001235;28;20100;-67
2022/08/03 04:22:08;;;;;;;4.07;2.05;;;18.10;99.90;;;;;;4999096;28;20203;-67
2022/08/03 04:24:43;;;;;;;6.00;2.10;;;18.10;99.90;;;;;;4995825;28;20061;-72
2022/08/03 04:27:12;;;;;;;7.82;2.53;;;18.10;99.90;;;;;;5003109;28;20053;-69
2022/08/03 04:29:44;;;;;;;4.30;1.75;;;18.10;99.90;;;;;;5002713;28;20616;-69
2022/08/03 04:32:15;;;;;;;2.50;1.67;;;18.10;99.90;;;;;;4999083;28;20066;-67
2022/08/03 04:34:43;;;;;;;16.02;4.15;;;18.10;99.90;;;;;;4995407;28;20448;-68
2022/08/03 04:37:13;;;;;;;5.03;1.90;;;18.10;99.90;;;;;;5000097;28;20518;-70
2022/08/03 04:39:43;;;;;;;4.43;1.67;;;18.20;99.90;;;;;;5001713;28;20161;-69
2022/08/03 04:42:12;;;;;;;2.30;1.50;;;18.20;99.90;;;;;;5004655;28;20103;-70
2022/08/03 04:44:44;;;;;;;8.25;1.77;;;18.20;99.90;;;;;;4999192;28;20052;-67
2022/08/03 04:47:10;;;;;;;2.45;1.20;;;18.20;99.90;;;;;;4994311;28;20092;-72
2022/08/03 04:49:38;;;;;;;5.30;2.08;;;18.20;99.90;;;;;;4997117;28;20135;-72
2022/08/03 04:52:07;;;;;;;2.78;1.58;;;18.20;99.90;;;;;;4999784;28;20555;-68
2022/08/03 04:54:44;;;;;;;6.78;2.13;;;18.30;99.90;;;;;;5003316;28;20133;-65
2022/08/03 04:57:17;;;;;;;9.00;2.35;;;18.30;99.90;;;;;;4999938;28;20203;-66
2022/08/03 04:59:53;;;;;;;6.90;2.20;;;18.30;99.90;;;;;;5000060;28;20081;-74
2022/08/03 05:02:29;;;;;;;2.97;2.10;;;18.30;99.90;;;;;;5002043;28;20038;-68
2022/08/03 05:04:56;;;;;;;3.35;1.92;;;18.40;99.90;;;;;;5001068;28;20141;-66
2022/08/03 05:07:23;;;;;;;5.63;1.85;;;18.40;99.90;;;;;;4996050;28;20042;-66
2022/08/03 05:09:51;;;;;;;5.10;1.92;;;18.40;99.90;;;;;;4998851;28;20042;-69
2022/08/03 05:12:29;;;;;;;5.97;2.38;;;18.50;99.90;;;;;;4997705;28;20042;-66
2022/08/03 05:14:59;;;;;;;5.28;2.35;;;18.50;99.90;;;;;;5000942;28;20156;-66
2022/08/03 05:17:27;;;;;;;3.20;2.95;;;18.60;99.90;;;;;;5001544;28;20112;-66
2022/08/03 05:19:54;;;;;;;3.22;2.03;;;18.70;99.90;;;;;;5001967;28;20374;-70
2022/08/03 05:22:22;;;;;;;5.45;2.90;;;18.70;99.90;;;;;;5003177;28;20112;-66
2022/08/03 05:24:48;;;;;;;9.27;2.78;;;18.80;99.90;;;;;;5002715;28;20392;-74
2022/08/03 05:27:18;;;;;;;6.63;2.25;;;18.80;99.90;;;;;;4998826;28;20178;-69
2022/08/03 05:29:49;;;;;;;2.38;1.65;;;18.80;99.90;;;;;;5001856;28;20046;-69
2022/08/03 05:32:17;;;;;;;7.22;2.22;;;18.80;99.90;;;;;;5001068;28;20050;-70
2022/08/03 05:34:44;;;;;;;5.63;3.85;;;18.80;99.90;;;;;;5001489;28;20540;-71
2022/08/03 05:37:11;;;;;;;12.13;4.30;;;18.80;99.90;;;;;;4998335;28;20157;-66
2022/08/03 05:39:38;;;;;;;5.00;2.17;;;18.80;99.90;;;;;;5002273;28;20143;-67
2022/08/03 05:42:05;;;;;;;4.10;1.75;;;18.70;99.90;;;;;;4996919;28;20110;-71
2022/08/03 05:44:33;;;;;;;5.03;2.05;;;18.70;99.90;;;;;;5000365;28;20049;-67
2022/08/03 05:47:00;;;;;;;5.35;2.25;;;18.70;99.90;;;;;;5003025;28;20050;-68
2022/08/03 05:49:26;;;;;;;6.25;2.28;;;18.80;99.90;;;;;;4994315;28;21128;-66
2022/08/03 05:51:53;;;;;;;7.28;1.92;;;18.80;99.90;;;;;;5001248;28;20057;-67
2022/08/03 05:54:39;;;;;;;3.67;2.40;;;18.80;99.90;;;;;;5000193;28;20046;-70
2022/08/03 05:57:22;;;;;;;2.42;1.95;;;18.80;99.90;;;;;;4999488;28;20060;-69
2022/08/03 05:59:49;;;;;;;5.38;2.50;;;18.90;99.90;;;;;;5000907;28;20054;-69
2022/08/03 06:02:25;;;;;;;3.95;3.65;;;18.90;99.90;;;;;;5001714;28;20052;-66
2022/08/03 06:04:52;;;;;;;3.40;1.98;;;19.00;99.90;;;;;;5001431;28;20076;-69
2022/08/03 06:07:19;;;;;;;5.28;2.05;;;19.00;99.90;;;;;;4997476;28;20128;-67
2022/08/03 06:09:45;;;;;;;1.73;1.50;;;19.00;99.90;;;;;;4999557;28;20148;-67
2022/08/03 06:12:34;;;;;;;5.80;2.10;;;19.10;99.90;;;;;;4998389;28;20451;-68
2022/08/03 06:15:03;;;;;;;5.20;2.08;;;19.10;99.90;;;;;;5000479;28;20066;-66
2022/08/03 06:17:30;;;;;;;2.63;2.20;;;19.20;99.90;;;;;;4999243;28;20050;-68
2022/08/03 06:20:04;;;;;;;2.92;2.42;;;19.10;99.90;;;;;;4998619;28;20041;-67
2022/08/03 06:22:31;;;;;;;3.72;1.95;;;19.10;99.90;;;;;;4999567;28;20070;-66
2022/08/03 06:24:58;;;;;;;15.82;3.80;;;19.20;99.90;;;;;;4999387;28;20046;-66
2022/08/03 06:27:30;;;;;;;4.32;2.70;;;19.20;99.90;;;;;;4995382;28;20058;-68
2022/08/03 06:30:04;;;;;;;6.82;2.08;;;19.20;99.90;;;;;;4997831;28;20072;-68
2022/08/03 06:32:32;;;;;;;5.20;2.05;;;19.20;99.90;;;;;;4999480;28;20133;-69
2022/08/03 06:34:59;;;;;;;7.75;2.63;;;19.10;99.90;;;;;;4997258;28;20112;-66
2022/08/03 06:37:26;;;;;;;4.35;2.58;;;19.10;99.90;;;;;;4998187;28;22792;-70
2022/08/03 06:39:53;;;;;;;6.10;2.88;;;19.10;99.90;;;;;;5000673;28;20133;-72
2022/08/03 06:42:20;;;;;;;6.03;1.80;;;19.20;99.90;;;;;;4998534;28;20852;-68
2022/08/03 06:44:48;;;;;;;7.55;2.83;;;19.30;99.90;;;;;;5001006;28;20041;-72
2022/08/03 06:47:16;;;;;;;2.95;2.22;;;19.40;99.90;;;;;;4998439;28;20107;-72
2022/08/03 06:49:42;;;;;;;4.97;2.25;;;19.50;99.90;;;;;;5000100;28;20054;-72
2022/08/03 06:52:30;;;;;;;2.53;1.73;;;19.60;99.90;;;;;;4999780;28;20111;-67
2022/08/03 06:55:05;;;;;;;11.13;2.75;;;19.70;99.90;;;;;;5002288;28;20127;-69
2022/08/03 06:57:32;;;;;;;3.95;2.28;;;19.70;99.90;;;;;;4997936;28;20358;-68
2022/08/03 07:00:00;;;;;;;4.40;2.40;;;19.60;99.90;;;;;;5001251;28;20103;-69
2022/08/03 07:02:38;;;;;;;13.57;3.95;;;19.60;99.90;;;;;;4992530;28;20628;-68
2022/08/03 07:05:07;;;;;;;2.85;1.83;;;19.60;99.90;;;;;;4998580;28;20753;-69
2022/08/03 07:07:34;;;;;;;5.75;2.25;;;19.60;99.90;;;;;;4996328;28;20455;-68
2022/08/03 07:10:01;;;;;;;3.92;2.10;;;19.70;99.90;;;;;;4999886;28;20516;-69
2022/08/03 07:12:29;;;;;;;5.97;2.25;;;19.80;99.90;;;;;;4997529;28;20042;-67
2022/08/03 07:14:58;;;;;;;11.63;4.40;;;19.80;99.90;;;;;;4999989;28;20105;-66
2022/08/03 07:17:30;;;;;;;4.53;4.13;;;19.80;99.90;;;;;;4996084;28;20108;-66
2022/08/03 07:19:58;;;;;;;3.30;2.35;;;19.80;99.90;;;;;;4994082;28;20050;-71
2022/08/03 07:22:25;;;;;;;2.67;2.20;;;19.90;99.90;;;;;;5001274;28;20128;-70
2022/08/03 07:24:52;;;;;;;8.13;3.35;;;20.00;99.90;;;;;;5000442;28;20092;-66
2022/08/03 07:27:19;;;;;;;4.40;3.03;;;20.00;99.90;;;;;;4997390;28;20373;-67
2022/08/03 07:29:46;;;;;;;3.75;2.67;;;20.10;99.90;;;;;;5001508;28;20853;-66
2022/08/03 07:32:13;;;;;;;5.32;2.80;;;20.10;99.90;;;;;;4995837;28;20135;-66
2022/08/03 07:34:40;;;;;;;5.43;3.58;;;20.10;99.90;;;;;;4997661;28;20333;-69
2022/08/03 07:37:07;;;;;;;3.97;2.22;;;20.20;99.90;;;;;;4994935;28;20189;-72
2022/08/03 07:39:34;;;;;;;3.75;3.45;;;20.20;99.90;;;;;;5001704;28;20456;-67
2022/08/03 07:42:01;;;;;;;4.05;2.50;;;20.10;99.90;;;;;;4998497;28;20065;-74
2022/08/03 07:44:28;;;;;;;3.78;2.03;;;20.10;99.90;;;;;;4998892;28;20139;-67
2022/08/03 07:46:56;;;;;;;4.13;2.85;;;20.30;99.90;;;;;;5001507;28;20050;-67
2022/08/03 07:49:23;;;;;;;3.47;2.88;;;20.30;99.90;;;;;;4996847;28;20076;-69
2022/08/03 07:52:46;;;;;;;5.35;2.60;;;20.40;99.90;;;;;;4997317;28;20038;-70
2022/08/03 07:54:37;;;;;;;5.82;2.47;;;20.60;99.90;;;;;;5000498;28;20066;-71
2022/08/03 07:57:04;;;;;;;6.53;3.25;;;20.60;99.90;;;;;;4997909;28;20077;-70
2022/08/03 07:59:33;;;;;;;2.67;2.20;;;20.80;99.90;;;;;;4997714;28;20380;-67
2022/08/03 08:02:20;;;;;;;4.25;2.05;;;20.90;99.90;;;;;;4998816;28;20157;-70
2022/08/03 08:04:47;;;;;;;5.97;2.40;;;21.00;99.90;;;;;;5003361;28;20108;-67
2022/08/03 08:07:15;;;;;;;3.90;2.25;;;21.10;99.90;;;;;;4996150;28;20272;-69
2022/08/03 08:09:44;;;;;;;2.87;2.27;;;21.20;99.90;;;;;;5004068;28;20056;-66
2022/08/03 08:12:11;;;;;;;5.07;2.30;;;21.30;99.90;;;;;;5000347;28;20061;-70
2022/08/03 08:14:44;;;;;;;3.58;3.28;;;21.40;99.90;;;;;;5000291;28;20046;-70
2022/08/03 08:17:12;;;;;;;4.45;2.45;;;21.50;99.90;;;;;;4997473;28;20045;-67
2022/08/03 08:19:39;;;;;;;3.63;2.13;;;21.60;99.90;;;;;;5009067;28;20058;-71
2022/08/03 08:22:18;;;;;;;3.90;2.03;;;21.70;99.90;;;;;;4999676;28;20133;-67
2022/08/03 08:24:59;;;;;;;3.03;1.95;;;21.80;99.90;;;;;;5003209;28;20081;-67
2022/08/03 08:27:27;;;;;;;9.23;2.40;;;21.80;99.90;;;;;;5001472;28;20054;-66
2022/08/03 08:30:18;;;;;;;2.63;2.42;;;21.80;99.90;;;;;;4999804;28;20042;-67
2022/08/03 08:32:46;;;;;;;3.22;2.47;;;21.70;99.90;;;;;;5000363;28;20046;-70
2022/08/03 08:35:13;;;;;;;3.70;2.25;;;21.70;99.90;;;;;;5000704;28;20108;-70
2022/08/03 08:37:42;;;;;;;2.58;2.15;;;21.60;99.90;;;;;;5002487;28;20107;-73
2022/08/03 08:40:19;;;;;;;2.50;1.77;;;21.70;99.90;;;;;;5003602;28;20037;-67
2022/08/03 08:42:46;;;;;;;6.00;2.90;;;21.90;99.90;;;;;;5004729;28;20073;-67
2022/08/03 08:45:25;;;;;;;5.13;1.90;;;21.90;99.90;;;;;;4993786;28;20729;-66
2022/08/03 08:47:54;;;;;;;4.38;2.25;;;22.00;99.90;;;;;;5001879;28;20058;-67
2022/08/03 08:50:29;;;;;;;3.28;2.67;;;22.10;99.90;;;;;;5001564;28;20042;-68
2022/08/03 08:53:01;;;;;;;2.92;2.65;;;22.10;99.90;;;;;;5005736;28;20438;-70
2022/08/03 08:55:29;;;;;;;4.47;2.50;;;22.00;99.90;;;;;;5001641;28;20060;-66
2022/08/03 08:58:18;;;;;;;7.43;3.05;;;21.90;99.90;;;;;;5006141;28;20049;-68
2022/08/03 09:00:47;;;;;;;3.70;2.30;;;21.80;99.90;;;;;;5003363;28;20054;-76
2022/08/03 09:03:15;;;;;;;5.90;2.20;;;21.90;99.90;;;;;;4990342;28;20047;-70
2022/08/03 09:05:55;;;;;;;3.03;2.05;;;22.00;99.90;;;;;;5004834;28;20105;-70
2022/08/03 09:08:22;;;;;;;4.60;2.40;;;21.90;99.90;;;;;;4988821;28;20107;-73
2022/08/03 09:10:49;;;;;;;3.60;1.90;;;21.90;99.90;;;;;;4998500;28;20047;-66
2022/08/03 09:13:16;;;;;;;6.75;2.20;;;21.90;99.90;;;;;;4995681;28;20182;-70
2022/08/03 09:15:45;;;;;;;3.75;1.98;;;22.00;99.90;;;;;;5008035;28;20330;-69
2022/08/03 09:18:29;;;;;;;6.47;3.17;;;22.20;99.90;;;;;;4990704;28;20118;-67
2022/08/03 09:21:14;;;;;;;4.60;2.45;;;22.10;99.90;;;;;;5004548;28;20103;-72
2022/08/03 09:23:59;;;;;;;3.72;1.60;;;21.90;99.90;;;;;;4993241;28;20485;-70
2022/08/03 09:26:33;;;;;;;4.32;2.15;;;21.90;99.90;;;;;;4997691;28;20046;-69
2022/08/03 09:29:07;;;;;;;8.10;2.10;;;22.00;99.90;;;;;;5002836;28;20051;-67
2022/08/03 09:31:45;;;;;;;3.42;1.80;;;22.10;99.90;;;;;;5002699;28;20071;-69
2022/08/03 09:34:14;;;;;;;3.05;2.30;;;22.40;99.90;;;;;;4992357;28;20454;-70
2022/08/03 09:36:42;;;;;;;4.00;2.63;;;22.60;99.90;;;;;;4992321;28;20369;-69
2022/08/03 09:39:12;;;;;;;3.75;2.10;;;22.80;99.90;;;;;;4992334;28;20376;-67
2022/08/03 09:41:41;;;;;;;4.03;2.10;;;22.90;99.90;;;;;;4994043;28;20104;-66
2022/08/03 09:44:08;;;;;;;1.77;1.67;;;22.90;99.90;;;;;;5001708;28;20188;-67
2022/08/03 09:46:55;;;;;;;17.77;1.77;;;22.90;99.90;;;;;;4994789;28;20078;-68
2022/08/03 09:49:23;;;;;;;7.55;1.85;;;22.90;99.90;;;;;;4992506;28;20119;-67
2022/08/03 09:51:51;;;;;;;3.38;1.40;;;22.90;99.90;;;;;;4993666;28;20124;-67
2022/08/03 09:54:39;;;;;;;4.00;2.30;;;23.10;99.90;;;;;;4998899;28;20109;-69
2022/08/03 09:57:07;;;;;;;3.22;1.58;;;23.20;99.90;;;;;;5000033;28;20050;-68
2022/08/03 09:59:34;;;;;;;4.00;1.63;;;23.30;99.90;;;;;;4981250;28;20097;-68
2022/08/03 10:02:18;;;;;;;2.90;1.75;;;23.20;99.90;;;;;;4978612;28;20046;-66
2022/08/03 10:04:51;;;;;;;2.05;1.70;;;23.10;99.90;;;;;;4976702;28;20073;-66
2022/08/03 10:07:20;;;;;;;5.78;2.03;;;23.00;99.90;;;;;;4976147;28;20105;-67
2022/08/03 10:10:06;;;;;;;3.03;2.55;;;23.20;99.90;;;;;;4975732;28;20554;-67
2022/08/03 10:12:53;;;;;;;3.92;1.95;;;23.30;99.90;;;;;;4970922;28;20039;-68
2022/08/03 10:15:20;;;;;;;3.70;1.67;;;23.30;99.90;;;;;;4972169;28;20039;-67
2022/08/03 10:18:08;;;;;;;1.48;1.35;;;23.40;99.90;;;;;;4969313;28;20047;-72
2022/08/03 10:20:57;;;;;;;2.58;1.17;;;23.50;99.90;;;;;;4984076;28;20750;-67
2022/08/03 10:23:25;;;;;;;3.08;1.58;;;23.60;99.90;;;;;;4972157;28;20546;-66
2022/08/03 10:26:00;;;;;;;2.55;1.38;;;23.70;99.90;;;;;;4974686;28;20038;-68
2022/08/03 10:28:46;;;;;;;4.95;1.77;;;23.70;99.90;;;;;;4970646;28;20049;-66
2022/08/03 10:31:15;;;;;;;1.88;1.10;;;23.90;99.90;;;;;;4973179;28;20066;-73
2022/08/03 10:33:46;;;;;;;3.25;1.40;;;24.00;99.90;;;;;;4974069;28;20128;-68
2022/08/03 10:36:22;;;;;;;3.78;1.42;;;24.00;99.90;;;;;;4977629;28;20050;-67
2022/08/03 10:38:55;;;;;;;4.65;1.85;;;23.90;99.90;;;;;;4966746;28;20054;-68
2022/08/03 10:41:30;;;;;;;3.08;1.20;;;23.80;99.90;;;;;;4969469;28;20051;-69
2022/08/03 10:44:10;;;;;;;9.23;2.00;;;23.80;99.90;;;;;;4970731;28;20050;-72
2022/08/03 10:46:38;;;;;;;4.55;2.05;;;24.10;99.90;;;;;;4973400;28;20062;-67
2022/08/03 10:49:16;;;;;;;2.03;1.77;;;24.10;99.90;;;;;;4975610;28;20488;-72
2022/08/03 10:52:03;;;;;;;10.02;2.13;;;24.10;99.90;;;;;;4971583;28;20616;-70
2022/08/03 10:57:47;;;;;;;2.60;1.52;;;24.40;99.90;;;;;;4997138;28;20412;-68
2022/08/03 11:00:21;;;;;;;2.67;1.80;;;24.30;99.90;;;;;;5003311;28;20415;-71
2022/08/03 11:03:01;;;;;;;4.90;1.73;;;24.20;99.90;;;;;;5003626;28;20041;-73
2022/08/03 11:05:30;;;;;;;4.82;1.83;;;24.10;99.90;;;;;;5000624;28;20046;-69
2022/08/03 11:08:16;;;;;;;3.42;1.63;;;24.10;99.90;;;;;;4996394;28;20481;-67
2022/08/03 11:10:43;;;;;;;3.13;1.75;;;24.10;99.90;;;;;;4982655;28;20057;-68
2022/08/03 11:13:17;;;;;;;1.88;1.45;;;24.30;99.90;;;;;;4972270;28;21144;-73
2022/08/03 11:15:46;;;;;;;3.50;1.60;;;24.20;99.90;;;;;;5001825;28;20046;-67
2022/08/03 11:18:14;;;;;;;4.45;1.55;;;24.30;99.90;;;;;;4998455;28;20085;-69
2022/08/03 11:20:52;;;;;;;1.20;1.10;;;24.20;99.90;;;;;;4977104;28;20562;-72
2022/08/03 11:23:43;;;;;;;2.67;1.48;;;24.20;99.90;;;;;;4991890;28;20149;-68
2022/08/03 11:26:29;;;;;;;;;;;24.20;99.90;;;;;;4983648;28;20042;-66
2022/08/03 11:29:27;;;;;;;6.50;2.78;;;24.40;99.90;;;;;;4980499;28;19972;-69
2022/08/03 11:31:53;;;;;;;6.50;1.67;;;24.50;99.90;;;;;;4967141;28;20137;-67
2022/08/03 11:34:20;;;;;;;3.20;1.98;;;24.60;99.90;;;;;;4987672;28;20126;-73
2022/08/03 11:37:17;;;;;;;5.10;2.38;;;24.50;99.90;;;;;;4981325;28;20057;-67
2022/08/03 11:39:46;;;;;;;5.25;2.70;;;24.60;99.90;;;;;;4978174;28;20510;-66
2022/08/03 11:42:22;;;;;;;2.53;1.38;;;24.80;99.90;;;;;;5000460;28;20093;-70
2022/08/03 11:44:51;;;;;;;8.52;2.22;;;25.00;99.90;;;;;;4991851;28;20555;-73
2022/08/03 11:47:20;;;;;;;5.20;1.75;;;25.10;99.90;;;;;;4973880;28;20477;-67
2022/08/03 11:49:49;;;;;;;3.33;1.23;;;25.00;99.90;;;;;;4970641;28;20047;-68
2022/08/03 11:52:18;;;;;;;4.70;2.08;;;24.90;99.90;;;;;;4976361;28;20375;-69
2022/08/03 11:54:54;;;;;;;5.20;1.77;;;24.80;99.90;;;;;;4973605;28;20046;-67
2022/08/03 11:57:33;;;;;;;2.13;1.83;;;24.80;99.90;;;;;;4970625;28;20054;-74
2022/08/03 12:00:38;;;;;;;3.15;1.77;;;24.70;99.90;;;;;;4982071;28;20042;-68
2022/08/03 12:03:11;;;;;;;1.33;1.17;;;24.70;99.90;;;;;;4973276;28;20046;-71
2022/08/03 12:05:51;;;;;;;2.38;1.02;;;24.90;99.90;;;;;;4995937;28;20038;-71
2022/08/03 12:08:31;;;;;;;4.25;2.08;;;24.90;99.90;;;;;;5002705;28;20459;-68
2022/08/03 12:11:01;;;;;;;4.20;1.38;;;24.90;99.90;;;;;;5002186;28;20163;-66
2022/08/03 12:13:38;;;;;;;5.78;2.05;;;25.00;99.90;;;;;;5001666;28;20115;-67
2022/08/03 12:16:27;;;;;;;4.20;1.48;;;25.10;99.90;;;;;;5000138;28;20052;-68
2022/08/03 12:19:03;;;;;;;3.93;1.30;;;25.20;99.90;;;;;;5004109;28;20050;-67
2022/08/03 12:21:31;;;;;;;7.32;1.70;;;25.20;99.90;;;;;;4996701;28;20413;-70
2022/08/03 12:24:00;;;;;;;4.22;1.40;;;25.30;99.90;;;;;;5002928;28;20049;-69
2022/08/03 12:26:29;;;;;;;1.35;1.23;;;25.20;99.90;;;;;;5007926;28;20163;-69
2022/08/03 12:28:56;;;;;;;3.00;1.08;;;25.20;99.90;;;;;;5000760;28;20049;-68
2022/08/03 12:31:24;;;;;;;1.55;1.30;;;25.20;99.90;;;;;;4994656;28;20049;-70
2022/08/03 12:34:03;;;;;;;5.85;2.50;;;25.00;99.90;;;;;;4997607;28;20503;-67
2022/08/03 12:36:33;;;;;;;3.13;1.05;;;25.00;99.90;;;;;;4992205;28;20145;-70
2022/08/03 12:39:06;;;;;;;2.15;1.33;;;25.10;99.90;;;;;;5006431;28;20599;-69
2022/08/03 12:41:38;;;;;;;3.15;1.75;;;25.20;99.90;;;;;;4985757;28;20045;-70
2022/08/03 12:44:07;;;;;;;3.05;1.77;;;25.20;99.90;;;;;;4982625;28;20098;-69
2022/08/03 12:46:35;;;;;;;2.97;1.20;;;25.40;99.90;;;;;;4981091;28;20058;-72
2022/08/03 12:49:10;;;;;;;2.22;1.35;;;25.40;99.90;;;;;;4971371;28;20066;-71
2022/08/03 12:51:56;;;;;;;2.05;1.30;;;25.50;99.90;;;;;;5005510;28;20045;-67
2022/08/03 12:54:26;;;;;;;2.67;1.85;;;25.50;99.10;;;;;;4996606;28;20101;-67
2022/08/03 12:57:06;;;;;;;3.70;1.52;;;25.40;99.20;;;;;;4981806;28;20046;-67
2022/08/03 12:59:36;;;;;;;5.78;1.70;;;25.30;99.10;;;;;;4998510;28;20110;-70
2022/08/03 13:02:21;;;;;;;2.03;1.40;;;25.30;99.10;;;;;;4991090;28;20150;-71
2022/08/03 13:04:51;;;;;;;3.00;1.10;;;25.40;98.80;;;;;;4982516;28;20050;-67
2022/08/03 13:07:19;;;;;;;4.03;1.67;;;25.50;98.10;;;;;;4976531;28;20042;-67
2022/08/03 13:09:48;;;;;;;2.60;1.35;;;25.60;97.90;;;;;;4983631;28;20240;-69
2022/08/03 13:12:17;;;;;;;3.25;1.00;;;25.60;97.30;;;;;;4981258;28;20045;-70
2022/08/03 13:14:47;;;;;;;4.32;1.70;;;25.50;96.60;;;;;;4976963;28;20039;-69
2022/08/03 13:17:15;;;;;;;3.13;1.65;;;25.60;96.60;;;;;;4982111;28;20472;-67
2022/08/03 13:19:43;;;;;;;1.30;1.15;;;25.70;96.40;;;;;;4984989;28;20149;-73
2022/08/03 13:22:18;;;;;;;2.33;1.38;;;25.90;96.60;;;;;;4980643;28;20062;-68